Time,TemperatureF,DewpointF,PressureIn,WindDirection,WindDirectionDegrees,WindSpeedMPH,WindSpeedGustMPH,Humidity,HourlyPrecipIn,Conditions,Clouds,dailyrainin,SoftwareType,DateUTC
2013-04-19 00:03:00,45.0,39.0,30.06,West,273,6.0,14.0,79,0.00,,,0.03,,2013-04-18 23:03:00,
2013-04-19 00:11:00,45.0,39.0,30.06,West,273,6.0,14.0,79,0.00,,,0.03,,2013-04-18 23:11:00,
2013-04-19 00:21:00,45.0,39.0,30.06,West,273,6.0,14.0,79,0.00,,,0.03,,2013-04-18 23:21:00,
2013-04-19 00:32:00,45.0,39.0,30.06,West,280,6.0,12.0,80,0.00,,,0.03,,2013-04-18 23:32:00,
2013-04-19 00:42:00,45.0,39.0,30.06,West,280,6.0,12.0,80,0.00,,,0.03,,2013-04-18 23:42:00,
2013-04-19 00:52:00,45.0,39.0,30.06,West,280,6.0,12.0,80,0.00,,,0.03,,2013-04-18 23:52:00,
2013-04-19 01:01:00,44.0,39.0,30.06,West,270,6.0,12.0,82,0.00,,,0.03,,2013-04-19 00:01:00,
2013-04-19 01:11:00,44.0,39.0,30.06,West,270,6.0,12.0,82,0.00,,,0.03,,2013-04-19 00:11:00,
2013-04-19 01:21:00,44.0,39.0,30.06,West,270,6.0,12.0,82,0.00,,,0.03,,2013-04-19 00:21:00,
2013-04-19 01:32:00,44.0,39.0,30.06,West,270,6.0,12.0,82,0.00,,,0.03,,2013-04-19 00:32:00,
2013-04-19 01:52:00,44.0,39.0,30.07,West,272,6.0,10.0,84,0.00,,,0.03,,2013-04-19 00:52:00,
2013-04-19 02:01:00,44.0,39.0,30.08,West,266,3.0,10.0,84,0.00,,,0.03,,2013-04-19 01:01:00,
2013-04-19 02:11:00,44.0,39.0,30.08,West,266,3.0,10.0,84,0.00,,,0.03,,2013-04-19 01:11:00,
2013-04-19 02:21:00,44.0,39.0,30.08,West,266,3.0,10.0,84,0.00,,,0.03,,2013-04-19 01:21:00,
2013-04-19 02:31:00,44.0,40.0,30.08,West,270,3.0,8.0,85,0.00,,,0.03,,2013-04-19 01:31:00,
2013-04-19 02:42:00,44.0,40.0,30.08,West,270,3.0,8.0,85,0.00,,,0.03,,2013-04-19 01:42:00,
2013-04-19 02:50:00,44.0,39.0,30.09,West,271,6.0,14.0,84,0.00,,,0.03,,2013-04-19 01:50:00,
2013-04-19 02:52:00,44.0,40.0,30.08,West,270,3.0,8.0,85,0.00,,,0.03,,2013-04-19 01:52:00,
2013-04-19 03:01:00,44.0,40.0,30.08,West,270,3.0,8.0,85,0.00,,,0.03,,2013-04-19 02:01:00,
2013-04-19 03:11:00,44.0,40.0,30.08,West,270,3.0,8.0,85,0.00,,,0.03,,2013-04-19 02:11:00,
2013-04-19 03:21:00,44.0,39.0,30.09,West,271,6.0,14.0,84,0.00,,,0.03,,2013-04-19 02:21:00,
2013-04-19 03:32:00,44.0,39.0,30.09,West,271,6.0,14.0,84,0.00,,,0.03,,2013-04-19 02:32:00,
2013-04-19 03:42:00,44.0,39.0,30.09,West,271,6.0,14.0,84,0.00,,,0.03,,2013-04-19 02:42:00,
2013-04-19 04:21:00,44.0,40.0,30.10,West,273,3.0,14.0,87,0.00,,,0.03,,2013-04-19 03:21:00,
2013-04-19 04:32:00,45.0,42.0,30.10,West,278,3.0,12.0,88,0.00,,,0.03,,2013-04-19 03:32:00,
2013-04-19 04:43:00,45.0,42.0,30.10,West,278,3.0,12.0,88,0.00,,,0.03,,2013-04-19 03:43:00,
2013-04-19 04:53:00,45.0,41.0,30.11,West,281,3.0,12.0,87,0.00,,,0.03,,2013-04-19 03:53:00,
2013-04-19 05:03:00,45.0,41.0,30.11,WNW,289,0.0,6.0,87,0.00,,,0.03,,2013-04-19 04:03:00,
2013-04-19 05:12:00,45.0,41.0,30.11,WNW,289,0.0,6.0,87,0.00,,,0.03,,2013-04-19 04:12:00,
2013-04-19 05:23:00,45.0,42.0,30.11,WNW,287,0.0,4.0,88,0.00,,,0.03,,2013-04-19 04:23:00,
2013-04-19 05:32:00,45.0,42.0,30.11,WNW,285,3.0,8.0,88,0.00,,,0.03,,2013-04-19 04:32:00,
2013-04-19 05:43:00,46.0,42.0,30.12,West,270,0.0,8.0,87,0.00,,,0.03,,2013-04-19 04:43:00,
2013-04-19 05:52:00,46.0,42.0,30.12,West,270,0.0,8.0,87,0.00,,,0.03,,2013-04-19 04:52:00,
2013-04-19 06:02:00,46.0,42.0,30.13,West,281,0.0,10.0,87,0.00,,,0.03,,2013-04-19 05:02:00,
2013-04-19 06:11:00,46.0,42.0,30.13,West,281,0.0,10.0,87,0.00,,,0.03,,2013-04-19 05:11:00,
2013-04-19 06:22:00,46.0,42.0,30.13,NW,310,3.0,12.0,87,0.00,,,0.03,,2013-04-19 05:22:00,
2013-04-19 06:32:00,46.0,42.0,30.14,NW,304,0.0,10.0,87,0.00,,,0.03,,2013-04-19 05:32:00,
2013-04-19 06:42:00,46.0,42.0,30.14,NW,304,0.0,10.0,87,0.00,,,0.03,,2013-04-19 05:42:00,
2013-04-19 06:51:00,46.0,42.0,30.15,WNW,298,0.0,8.0,87,0.00,,,0.03,,2013-04-19 05:51:00,
2013-04-19 06:52:00,46.0,42.0,30.16,WNW,289,3.0,14.0,86,0.00,,,0.03,,2013-04-19 05:52:00,
2013-04-19 07:01:00,46.0,42.0,30.15,WNW,298,0.0,8.0,87,0.00,,,0.03,,2013-04-19 06:01:00,
2013-04-19 07:11:00,46.0,42.0,30.15,WNW,298,0.0,8.0,87,0.00,,,0.03,,2013-04-19 06:11:00,
2013-04-19 07:22:00,46.0,42.0,30.16,WNW,289,3.0,14.0,86,0.00,,,0.03,,2013-04-19 06:22:00,
2013-04-19 07:31:00,46.0,42.0,30.16,WNW,289,3.0,14.0,86,0.00,,,0.03,,2013-04-19 06:31:00,
2013-04-19 07:42:00,46.0,42.0,30.16,WNW,289,3.0,14.0,86,0.00,,,0.03,,2013-04-19 06:42:00,
2013-04-19 08:32:00,47.0,42.0,30.21,WNW,287,3.0,12.0,84,0.00,,,0.03,,2013-04-19 07:32:00,
2013-04-19 08:42:00,47.0,42.0,30.21,WNW,287,3.0,12.0,84,0.00,,,0.03,,2013-04-19 07:42:00,
2013-04-19 08:52:00,47.0,42.0,30.21,NW,321,0.0,8.0,84,0.00,,,0.03,,2013-04-19 07:52:00,
2013-04-19 09:02:00,48.0,44.0,30.22,NNW,343,3.0,10.0,85,0.00,,,0.03,,2013-04-19 08:02:00,
2013-04-19 09:12:00,48.0,44.0,30.22,NNW,343,3.0,10.0,85,0.00,,,0.03,,2013-04-19 08:12:00,
2013-04-19 09:21:00,49.0,43.0,30.23,NNW,330,0.0,12.0,79,0.00,,,0.03,,2013-04-19 08:21:00,
2013-04-19 09:32:00,49.0,43.0,30.24,NNE,19,0.0,8.0,79,0.00,,,0.03,,2013-04-19 08:32:00,
2013-04-19 09:42:00,49.0,43.0,30.24,NNE,19,0.0,8.0,79,0.00,,,0.03,,2013-04-19 08:42:00,
2013-04-19 09:52:00,49.0,42.0,30.24,NW,314,3.0,12.0,78,0.00,,,0.03,,2013-04-19 08:52:00,
2013-04-19 10:01:00,49.0,41.0,30.25,NNE,32,3.0,8.0,73,0.00,,,0.03,,2013-04-19 09:01:00,
2013-04-19 10:11:00,49.0,41.0,30.25,NNE,32,3.0,8.0,73,0.00,,,0.03,,2013-04-19 09:11:00,
2013-04-19 10:21:00,53.0,43.0,30.26,NE,41,3.0,12.0,68,0.00,,,0.03,,2013-04-19 09:21:00,
2013-04-19 10:32:00,53.0,43.0,30.26,NE,41,3.0,12.0,68,0.00,,,0.03,,2013-04-19 09:32:00,
2013-04-19 10:42:00,53.0,43.0,30.26,NE,41,3.0,12.0,68,0.00,,,0.03,,2013-04-19 09:42:00,
2013-04-19 10:52:00,52.0,41.0,30.27,North,352,3.0,10.0,66,0.00,,,0.03,,2013-04-19 09:52:00,
2013-04-19 11:02:00,52.0,41.0,30.27,North,352,3.0,10.0,66,0.00,,,0.03,,2013-04-19 10:02:00,
2013-04-19 11:13:00,52.0,41.0,30.27,North,352,3.0,10.0,66,0.00,,,0.03,,2013-04-19 10:13:00,
2013-04-19 11:23:00,52.0,41.0,30.27,North,352,3.0,10.0,66,0.00,,,0.03,,2013-04-19 10:23:00,
2013-04-19 11:33:00,52.0,40.0,30.29,NNE,22,3.0,10.0,64,0.00,,,0.03,,2013-04-19 10:33:00,
2013-04-19 11:42:00,52.0,40.0,30.29,NNE,22,3.0,10.0,64,0.00,,,0.03,,2013-04-19 10:42:00,
2013-04-19 11:52:00,52.0,39.0,30.29,NNE,23,3.0,10.0,62,0.00,,,0.03,,2013-04-19 10:52:00,
2013-04-19 12:02:00,53.0,41.0,30.29,NNE,27,3.0,12.0,64,0.00,,,0.03,,2013-04-19 11:02:00,
2013-04-19 12:11:00,53.0,41.0,30.29,NNE,27,3.0,12.0,64,0.00,,,0.03,,2013-04-19 11:11:00,
2013-04-19 12:21:00,53.0,41.0,30.29,NNE,27,3.0,12.0,64,0.00,,,0.03,,2013-04-19 11:21:00,
2013-04-19 12:32:00,54.0,42.0,30.30,NNE,29,3.0,10.0,64,0.00,,,0.03,,2013-04-19 11:32:00,
2013-04-19 12:42:00,54.0,42.0,30.30,NNE,29,3.0,10.0,64,0.00,,,0.03,,2013-04-19 11:42:00,
2013-04-19 12:52:00,53.0,39.0,30.31,NNE,16,0.0,8.0,60,0.00,,,0.03,,2013-04-19 11:52:00,
2013-04-19 13:02:00,53.0,39.0,30.31,NNE,16,0.0,8.0,60,0.00,,,0.03,,2013-04-19 12:02:00,
2013-04-19 13:12:00,53.0,39.0,30.31,NNE,16,0.0,8.0,60,0.00,,,0.03,,2013-04-19 12:12:00,
2013-04-19 13:22:00,54.0,40.0,30.31,NNE,26,3.0,6.0,59,0.00,,,0.03,,2013-04-19 12:22:00,
2013-04-19 13:32:00,54.0,40.0,30.32,North,355,3.0,8.0,59,0.00,,,0.03,,2013-04-19 12:32:00,
2013-04-19 13:42:00,54.0,40.0,30.32,North,355,3.0,8.0,59,0.00,,,0.03,,2013-04-19 12:42:00,
2013-04-19 13:52:00,56.0,43.0,30.32,North,2,3.0,16.0,61,0.00,,,0.03,,2013-04-19 12:52:00,
2013-04-19 14:01:00,56.0,41.0,30.32,NNE,21,3.0,10.0,56,0.00,,,0.03,,2013-04-19 13:01:00,
2013-04-19 14:11:00,56.0,41.0,30.32,NNE,21,3.0,10.0,56,0.00,,,0.03,,2013-04-19 13:11:00,
2013-04-19 14:21:00,55.0,41.0,30.32,NNE,26,3.0,8.0,58,0.00,,,0.03,,2013-04-19 13:21:00,
2013-04-19 14:32:00,55.0,41.0,30.32,NNE,26,3.0,8.0,58,0.00,,,0.03,,2013-04-19 13:32:00,
2013-04-19 14:42:00,55.0,41.0,30.32,NNE,26,3.0,8.0,58,0.00,,,0.03,,2013-04-19 13:42:00,
2013-04-19 14:52:00,59.0,41.0,30.33,NNE,22,3.0,10.0,52,0.00,,,0.00,,2013-04-19 13:52:00,
2013-04-19 15:01:00,58.0,40.0,30.33,NNW,337,3.0,14.0,52,0.00,,,0.00,,2013-04-19 14:01:00,
2013-04-19 15:11:00,58.0,40.0,30.33,NNW,337,3.0,14.0,52,0.00,,,0.00,,2013-04-19 14:11:00,
2013-04-19 15:21:00,58.0,40.0,30.33,NNW,337,3.0,14.0,52,0.00,,,0.00,,2013-04-19 14:21:00,
2013-04-19 15:31:00,59.0,40.0,30.33,North,354,0.0,6.0,50,0.00,,,0.00,,2013-04-19 14:31:00,
2013-04-19 15:42:00,59.0,40.0,30.33,North,354,0.0,6.0,50,0.00,,,0.00,,2013-04-19 14:42:00,
2013-04-19 15:52:00,59.0,40.0,30.34,North,9,3.0,8.0,50,0.00,,,0.00,,2013-04-19 14:52:00,
2013-04-19 16:01:00,58.0,42.0,30.34,NNE,31,3.0,8.0,56,0.00,,,0.00,,2013-04-19 15:01:00,
2013-04-19 16:11:00,58.0,42.0,30.34,NNE,31,3.0,8.0,56,0.00,,,0.00,,2013-04-19 15:11:00,
2013-04-19 16:21:00,58.0,43.0,30.35,ENE,71,3.0,8.0,58,0.00,,,0.00,,2013-04-19 15:21:00,
2013-04-19 16:33:00,58.0,43.0,30.35,ENE,71,3.0,8.0,58,0.00,,,0.00,,2013-04-19 15:33:00,
2013-04-19 16:43:00,58.0,43.0,30.35,ENE,71,3.0,8.0,58,0.00,,,0.00,,2013-04-19 15:43:00,
2013-04-19 16:52:00,56.0,41.0,30.35,NE,36,3.0,12.0,58,0.00,,,0.00,,2013-04-19 15:52:00,
2013-04-19 17:03:00,56.0,41.0,30.36,NE,42,3.0,8.0,58,0.00,,,0.00,,2013-04-19 16:03:00,
2013-04-19 17:12:00,56.0,41.0,30.36,NE,42,3.0,8.0,58,0.00,,,0.00,,2013-04-19 16:12:00,
2013-04-19 17:22:00,56.0,41.0,30.36,NE,42,3.0,8.0,58,0.00,,,0.00,,2013-04-19 16:22:00,
2013-04-19 17:32:00,54.0,41.0,30.37,NE,40,3.0,12.0,62,0.00,,,0.00,,2013-04-19 16:32:00,
2013-04-19 17:41:00,54.0,41.0,30.38,NE,40,3.0,14.0,61,0.00,,,0.00,,2013-04-19 16:41:00,
2013-04-19 17:42:00,54.0,41.0,30.37,NE,40,3.0,12.0,62,0.00,,,0.00,,2013-04-19 16:42:00,
2013-04-19 17:52:00,54.0,42.0,30.38,ENE,74,3.0,10.0,63,0.00,,,0.00,,2013-04-19 16:52:00,
2013-04-19 18:02:00,54.0,41.0,30.38,NE,40,3.0,14.0,61,0.00,,,0.00,,2013-04-19 17:02:00,
2013-04-19 18:12:00,54.0,41.0,30.38,NE,40,3.0,14.0,61,0.00,,,0.00,,2013-04-19 17:12:00,
2013-04-19 18:21:00,54.0,41.0,30.38,NE,40,3.0,14.0,61,0.00,,,0.00,,2013-04-19 17:21:00,
2013-04-19 18:32:00,54.0,41.0,30.38,NE,40,3.0,14.0,61,0.00,,,0.00,,2013-04-19 17:32:00,
2013-04-19 19:01:00,52.0,41.0,30.40,NNE,31,3.0,8.0,67,0.00,,,0.00,,2013-04-19 18:01:00,
2013-04-19 19:13:00,52.0,41.0,30.40,NNE,31,3.0,8.0,67,0.00,,,0.00,,2013-04-19 18:13:00,
2013-04-19 19:22:00,51.0,41.0,30.40,NNE,30,6.0,12.0,68,0.00,,,0.00,,2013-04-19 18:22:00,
2013-04-19 19:33:00,51.0,42.0,30.41,NE,44,3.0,12.0,70,0.00,,,0.00,,2013-04-19 18:33:00,
2013-04-19 19:42:00,51.0,42.0,30.41,NE,44,3.0,12.0,70,0.00,,,0.00,,2013-04-19 18:42:00,
2013-04-19 19:52:00,50.0,41.0,30.41,NE,38,3.0,12.0,71,0.00,,,0.00,,2013-04-19 18:52:00,
2013-04-19 20:01:00,49.0,41.0,30.42,NNE,33,3.0,8.0,73,0.00,,,0.00,,2013-04-19 19:01:00,
2013-04-19 20:11:00,49.0,41.0,30.42,NNE,33,3.0,8.0,73,0.00,,,0.00,,2013-04-19 19:11:00,
2013-04-19 20:21:00,48.0,41.0,30.43,NNE,27,0.0,6.0,76,0.00,,,0.00,,2013-04-19 19:21:00,
2013-04-19 20:31:00,48.0,41.0,30.43,NNE,24,0.0,6.0,76,0.00,,,0.00,,2013-04-19 19:31:00,
2013-04-19 20:41:00,48.0,41.0,30.43,NNE,24,0.0,6.0,76,0.00,,,0.00,,2013-04-19 19:41:00,
2013-04-19 20:52:00,48.0,41.0,30.43,NNE,24,0.0,6.0,76,0.00,,,0.00,,2013-04-19 19:52:00,
2013-04-19 21:01:00,47.0,41.0,30.44,NE,44,0.0,6.0,78,0.00,,,0.00,,2013-04-19 20:01:00,
2013-04-19 21:11:00,47.0,41.0,30.44,NE,44,0.0,6.0,78,0.00,,,0.00,,2013-04-19 20:11:00,
2013-04-19 21:22:00,46.0,40.0,30.45,NE,44,0.0,2.0,78,0.00,,,0.00,,2013-04-19 20:22:00,
2013-04-19 21:32:00,46.0,40.0,30.45,NE,43,0.0,2.0,79,0.00,,,0.00,,2013-04-19 20:32:00,
2013-04-19 21:41:00,45.0,39.0,30.45,NE,43,0.0,2.0,79,0.00,,,0.00,,2013-04-19 20:41:00,
2013-04-19 21:51:00,45.0,39.0,30.45,NE,43,0.0,2.0,79,0.00,,,0.00,,2013-04-19 20:51:00,
2013-04-19 22:01:00,44.0,39.0,30.45,NE,43,0.0,2.0,81,0.00,,,0.00,,2013-04-19 21:01:00,
2013-04-19 22:11:00,44.0,39.0,30.46,NE,43,0.0,2.0,82,0.00,,,0.00,,2013-04-19 21:11:00,
2013-04-19 22:21:00,44.0,39.0,30.46,NE,43,0.0,2.0,82,0.00,,,0.00,,2013-04-19 21:21:00,
2013-04-19 22:32:00,44.0,39.0,30.46,NE,43,0.0,2.0,82,0.00,,,0.00,,2013-04-19 21:32:00,
2013-04-19 22:42:00,44.0,39.0,30.46,NE,43,0.0,2.0,82,0.00,,,0.00,,2013-04-19 21:42:00,
2013-04-19 22:52:00,43.0,38.0,30.46,North,0,0.0,0.0,83,0.00,,,0.00,,2013-04-19 21:52:00,
2013-04-19 23:02:00,43.0,38.0,30.46,North,0,0.0,0.0,83,0.00,,,0.00,,2013-04-19 22:02:00,
2013-04-19 23:12:00,43.0,38.0,30.46,North,0,0.0,0.0,83,0.00,,,0.00,,2013-04-19 22:12:00,
2013-04-19 23:22:00,41.0,37.0,30.47,North,0,0.0,0.0,86,0.00,,,0.00,,2013-04-19 22:22:00,
2013-04-19 23:33:00,41.0,38.0,30.47,North,0,0.0,0.0,89,0.00,,,0.00,,2013-04-19 22:33:00,
2013-04-19 23:42:00,41.0,38.0,30.47,North,0,0.0,0.0,89,0.00,,,0.00,,2013-04-19 22:42:00,
2013-04-19 23:52:00,41.0,39.0,30.48,North,0,0.0,0.0,91,0.00,,,0.00,,2013-04-19 22:52:00,